sensor_id;sensor_type;location;lat;lon;timestamp;temperature;humidity
15286;DHT22;7744;52.172;10.668;2022-11-20T00:00:48;-2.70;99.90
15286;DHT22;7744;52.172;10.668;2022-11-20T00:03:14;-2.70;99.90
15286;DHT22;7744;52.172;10.668;2022-11-20T00:05:40;-2.60;99.90
15286;DHT22;7744;52.172;10.668;2022-11-20T00:08:05;-2.70;99.90
15286;DHT22;7744;52.172;10.668;2022-11-20T00:10:31;-2.60;99.90
15286;DHT22;7744;52.172;10.668;2022-11-20T00:12:58;-2.60;99.90
15286;DHT22;7744;52.172;10.668;2022-11-20T00:15:24;-2.60;99.90
15286;DHT22;7744;52.172;10.668;2022-11-20T00:17:50;-2.60;99.90
15286;DHT22;7744;52.172;10.668;2022-11-20T00:20:15;-2.60;99.90
15286;DHT22;7744;52.172;10.668;2022-11-20T00:22:41;-2.60;99.90
15286;DHT22;7744;52.172;10.668;2022-11-20T00:25:07;-2.60;99.90
15286;DHT22;7744;52.172;10.668;2022-11-20T00:27:32;-2.60;99.90
15286;DHT22;7744;52.172;10.668;2022-11-20T00:29:58;-2.70;99.90
15286;DHT22;7744;52.172;10.668;2022-11-20T00:32:24;-2.80;99.90
15286;DHT22;7744;52.172;10.668;2022-11-20T00:34:49;-2.80;99.90
15286;DHT22;7744;52.172;10.668;2022-11-20T00:37:15;-2.80;99.90
15286;DHT22;7744;52.172;10.668;2022-11-20T00:39:40;-2.90;99.90
15286;DHT22;7744;52.172;10.668;2022-11-20T00:42:06;-2.90;99.90
15286;DHT22;7744;52.172;10.668;2022-11-20T00:44:32;-2.90;99.90
15286;DHT22;7744;52.172;10.668;2022-11-20T00:46:57;-2.90;99.90
15286;DHT22;7744;52.172;10.668;2022-11-20T00:49:23;-3.00;99.90
15286;DHT22;7744;52.172;10.668;2022-11-20T00:51:48;-3.20;99.90
15286;DHT22;7744;52.172;10.668;2022-11-20T00:54:14;-3.30;99.90
15286;DHT22;7744;52.172;10.668;2022-11-20T00:56:39;-3.30;99.90
15286;DHT22;7744;52.172;10.668;2022-11-20T00:59:05;-3.50;99.90
15286;DHT22;7744;52.172;10.668;2022-11-20T01:01:31;-3.60;99.90
15286;DHT22;7744;52.172;10.668;2022-11-20T01:03:59;-3.70;99.90
15286;DHT22;7744;52.172;10.668;2022-11-20T01:06:27;-3.70;99.90
15286;DHT22;7744;52.172;10.668;2022-11-20T01:08:56;-3.80;99.90
15286;DHT22;7744;52.172;10.668;2022-11-20T01:11:34;-3.80;99.90
15286;DHT22;7744;52.172;10.668;2022-11-20T01:14:02;-3.90;99.90
15286;DHT22;7744;52.172;10.668;2022-11-20T01:16:30;-3.90;99.90
15286;DHT22;7744;52.172;10.668;2022-11-20T01:18:58;-4.10;99.90
15286;DHT22;7744;52.172;10.668;2022-11-20T01:21:27;-4.10;99.90
15286;DHT22;7744;52.172;10.668;2022-11-20T01:23:53;-4.20;99.90
15286;DHT22;7744;52.172;10.668;2022-11-20T01:26:21;-4.30;99.90
15286;DHT22;7744;52.172;10.668;2022-11-20T01:28:47;-4.30;99.90
15286;DHT22;7744;52.172;10.668;2022-11-20T01:31:14;-4.30;99.90
15286;DHT22;7744;52.172;10.668;2022-11-20T01:33:41;-4.40;99.90
15286;DHT22;7744;52.172;10.668;2022-11-20T01:36:07;-4.50;99.90
15286;DHT22;7744;52.172;10.668;2022-11-20T01:38:34;-4.50;99.90
15286;DHT22;7744;52.172;10.668;2022-11-20T01:40:59;-4.50;99.90
15286;DHT22;7744;52.172;10.668;2022-11-20T01:43:25;-4.60;99.90
15286;DHT22;7744;52.172;10.668;2022-11-20T01:46:05;-4.60;99.90
15286;DHT22;7744;52.172;10.668;2022-11-20T01:49:23;-4.60;1.00
15286;DHT22;7744;52.172;10.668;2022-11-20T01:51:45;-4.70;1.00
15286;DHT22;7744;52.172;10.668;2022-11-20T01:54:21;-4.70;1.00
15286;DHT22;7744;52.172;10.668;2022-11-20T01:56:52;-4.70;1.00
15286;DHT22;7744;52.172;10.668;2022-11-20T01:59:20;-4.80;1.00
15286;DHT22;7744;52.172;10.668;2022-11-20T02:01:48;-4.70;1.00
15286;DHT22;7744;52.172;10.668;2022-11-20T02:04:14;-4.70;1.00
15286;DHT22;7744;52.172;10.668;2022-11-20T02:06:54;-4.80;1.00
15286;DHT22;7744;52.172;10.668;2022-11-20T02:09:22;-4.90;1.00
15286;DHT22;7744;52.172;10.668;2022-11-20T02:11:48;-5.00;1.00
15286;DHT22;7744;52.172;10.668;2022-11-20T02:14:14;-5.00;1.00
15286;DHT22;7744;52.172;10.668;2022-11-20T02:16:44;-4.90;1.00
15286;DHT22;7744;52.172;10.668;2022-11-20T02:19:27;-4.90;1.00
15286;DHT22;7744;52.172;10.668;2022-11-20T02:22:07;-4.90;1.00
15286;DHT22;7744;52.172;10.668;2022-11-20T02:24:36;-5.00;1.00
15286;DHT22;7744;52.172;10.668;2022-11-20T02:27:06;-5.00;1.00
15286;DHT22;7744;52.172;10.668;2022-11-20T02:29:41;-5.00;1.00
15286;DHT22;7744;52.172;10.668;2022-11-20T02:32:25;-5.00;1.00
15286;DHT22;7744;52.172;10.668;2022-11-20T02:34:52;-5.00;1.00
15286;DHT22;7744;52.172;10.668;2022-11-20T02:37:18;-5.10;1.00
15286;DHT22;7744;52.172;10.668;2022-11-20T02:39:46;-5.10;1.00
15286;DHT22;7744;52.172;10.668;2022-11-20T02:42:12;-5.20;1.00
15286;DHT22;7744;52.172;10.668;2022-11-20T02:44:38;-5.20;1.00
15286;DHT22;7744;52.172;10.668;2022-11-20T02:47:03;-5.20;1.00
15286;DHT22;7744;52.172;10.668;2022-11-20T02:49:29;-5.20;1.00
15286;DHT22;7744;52.172;10.668;2022-11-20T02:51:54;-5.10;1.00
15286;DHT22;7744;52.172;10.668;2022-11-20T02:54:20;-5.20;1.00
15286;DHT22;7744;52.172;10.668;2022-11-20T02:56:46;-5.40;1.00
15286;DHT22;7744;52.172;10.668;2022-11-20T02:59:11;-5.30;1.00
15286;DHT22;7744;52.172;10.668;2022-11-20T03:01:37;-5.30;1.00
15286;DHT22;7744;52.172;10.668;2022-11-20T03:04:03;-5.30;1.00
15286;DHT22;7744;52.172;10.668;2022-11-20T03:06:28;-5.20;1.00
15286;DHT22;7744;52.172;10.668;2022-11-20T03:08:54;-5.20;1.00
15286;DHT22;7744;52.172;10.668;2022-11-20T03:11:20;-5.30;1.00
15286;DHT22;7744;52.172;10.668;2022-11-20T03:13:45;-5.30;1.00
15286;DHT22;7744;52.172;10.668;2022-11-20T03:16:17;-5.30;1.00
15286;DHT22;7744;52.172;10.668;2022-11-20T03:18:43;-5.30;1.00
15286;DHT22;7744;52.172;10.668;2022-11-20T03:21:10;-5.30;1.00
15286;DHT22;7744;52.172;10.668;2022-11-20T03:23:37;-5.20;1.00
15286;DHT22;7744;52.172;10.668;2022-11-20T03:26:13;-5.20;1.00
15286;DHT22;7744;52.172;10.668;2022-11-20T03:28:41;-5.20;1.00
15286;DHT22;7744;52.172;10.668;2022-11-20T03:31:12;-5.20;1.00
15286;DHT22;7744;52.172;10.668;2022-11-20T03:33:40;-5.30;1.00
15286;DHT22;7744;52.172;10.668;2022-11-20T03:36:10;-5.30;1.00
15286;DHT22;7744;52.172;10.668;2022-11-20T03:38:36;-5.30;1.00
15286;DHT22;7744;52.172;10.668;2022-11-20T03:41:07;-5.20;1.00
15286;DHT22;7744;52.172;10.668;2022-11-20T03:43:34;-5.30;1.00
15286;DHT22;7744;52.172;10.668;2022-11-20T03:46:00;-5.30;1.00
15286;DHT22;7744;52.172;10.668;2022-11-20T03:48:25;-5.30;1.00
15286;DHT22;7744;52.172;10.668;2022-11-20T03:50:52;-5.30;1.00
15286;DHT22;7744;52.172;10.668;2022-11-20T03:53:19;-5.20;1.00
15286;DHT22;7744;52.172;10.668;2022-11-20T03:55:50;-5.10;1.00
15286;DHT22;7744;52.172;10.668;2022-11-20T03:58:15;-5.10;1.00
15286;DHT22;7744;52.172;10.668;2022-11-20T04:00:41;-5.10;1.00
15286;DHT22;7744;52.172;10.668;2022-11-20T04:03:06;-5.10;99.90
15286;DHT22;7744;52.172;10.668;2022-11-20T04:05:33;-5.10;99.90
15286;DHT22;7744;52.172;10.668;2022-11-20T04:07:59;-5.20;99.90
15286;DHT22;7744;52.172;10.668;2022-11-20T04:10:25;-5.10;99.90
15286;DHT22;7744;52.172;10.668;2022-11-20T04:12:50;-5.10;99.90
15286;DHT22;7744;52.172;10.668;2022-11-20T04:15:16;-5.20;99.90
15286;DHT22;7744;52.172;10.668;2022-11-20T04:17:41;-5.20;99.90
15286;DHT22;7744;52.172;10.668;2022-11-20T04:20:07;-5.20;99.90
15286;DHT22;7744;52.172;10.668;2022-11-20T04:22:33;-5.10;99.90
15286;DHT22;7744;52.172;10.668;2022-11-20T04:24:59;-5.10;99.90
15286;DHT22;7744;52.172;10.668;2022-11-20T04:27:24;-5.10;99.90
15286;DHT22;7744;52.172;10.668;2022-11-20T04:29:50;-5.10;99.90
15286;DHT22;7744;52.172;10.668;2022-11-20T04:32:15;-5.00;99.90
15286;DHT22;7744;52.172;10.668;2022-11-20T04:34:41;-5.00;99.90
15286;DHT22;7744;52.172;10.668;2022-11-20T04:37:06;-5.00;99.90
15286;DHT22;7744;52.172;10.668;2022-11-20T04:39:32;-5.00;99.90
15286;DHT22;7744;52.172;10.668;2022-11-20T04:41:57;-4.90;99.90
15286;DHT22;7744;52.172;10.668;2022-11-20T04:44:41;-4.80;99.90
15286;DHT22;7744;52.172;10.668;2022-11-20T04:47:07;-4.80;99.90
15286;DHT22;7744;52.172;10.668;2022-11-20T04:49:33;-4.70;99.90
15286;DHT22;7744;52.172;10.668;2022-11-20T04:51:59;-4.80;99.90
15286;DHT22;7744;52.172;10.668;2022-11-20T04:54:24;-4.70;99.90
15286;DHT22;7744;52.172;10.668;2022-11-20T04:56:53;-4.70;99.90
15286;DHT22;7744;52.172;10.668;2022-11-20T04:59:19;-4.80;99.90
15286;DHT22;7744;52.172;10.668;2022-11-20T05:01:44;-4.90;99.90
15286;DHT22;7744;52.172;10.668;2022-11-20T05:04:10;-5.00;99.90
15286;DHT22;7744;52.172;10.668;2022-11-20T05:06:36;-5.00;99.90
15286;DHT22;7744;52.172;10.668;2022-11-20T05:09:02;-5.10;99.90
15286;DHT22;7744;52.172;10.668;2022-11-20T05:11:27;-5.10;99.90
15286;DHT22;7744;52.172;10.668;2022-11-20T05:13:58;-5.10;99.90
15286;DHT22;7744;52.172;10.668;2022-11-20T05:16:24;-5.10;99.90
15286;DHT22;7744;52.172;10.668;2022-11-20T05:18:53;-5.20;99.90
15286;DHT22;7744;52.172;10.668;2022-11-20T05:21:20;-5.20;99.90
15286;DHT22;7744;52.172;10.668;2022-11-20T05:23:46;-5.20;99.90
15286;DHT22;7744;52.172;10.668;2022-11-20T05:26:14;-5.10;99.90
15286;DHT22;7744;52.172;10.668;2022-11-20T05:28:41;-5.20;99.90
15286;DHT22;7744;52.172;10.668;2022-11-20T05:31:12;-5.20;99.90
15286;DHT22;7744;52.172;10.668;2022-11-20T05:33:41;-5.10;99.90
15286;DHT22;7744;52.172;10.668;2022-11-20T05:36:07;-5.10;99.90
15286;DHT22;7744;52.172;10.668;2022-11-20T05:38:32;-5.00;99.90
15286;DHT22;7744;52.172;10.668;2022-11-20T05:41:08;-5.00;99.90
15286;DHT22;7744;52.172;10.668;2022-11-20T05:43:35;-5.00;99.90
15286;DHT22;7744;52.172;10.668;2022-11-20T05:46:02;-4.90;99.90
15286;DHT22;7744;52.172;10.668;2022-11-20T05:48:28;-4.90;99.90
15286;DHT22;7744;52.172;10.668;2022-11-20T05:50:54;-4.90;99.90
15286;DHT22;7744;52.172;10.668;2022-11-20T05:53:19;-4.80;99.90
15286;DHT22;7744;52.172;10.668;2022-11-20T05:55:45;-4.80;99.90
15286;DHT22;7744;52.172;10.668;2022-11-20T05:58:10;-4.80;99.90
15286;DHT22;7744;52.172;10.668;2022-11-20T06:00:36;-4.80;99.90
15286;DHT22;7744;52.172;10.668;2022-11-20T06:03:02;-4.80;99.90
15286;DHT22;7744;52.172;10.668;2022-11-20T06:05:27;-4.80;99.90
15286;DHT22;7744;52.172;10.668;2022-11-20T06:07:53;-4.70;99.90
15286;DHT22;7744;52.172;10.668;2022-11-20T06:10:18;-4.70;99.90
15286;DHT22;7744;52.172;10.668;2022-11-20T06:12:44;-4.60;99.90
15286;DHT22;7744;52.172;10.668;2022-11-20T06:15:10;-4.60;99.90
15286;DHT22;7744;52.172;10.668;2022-11-20T06:17:35;-4.80;99.90
15286;DHT22;7744;52.172;10.668;2022-11-20T06:20:01;-4.80;99.90
15286;DHT22;7744;52.172;10.668;2022-11-20T06:22:27;-4.90;99.90
15286;DHT22;7744;52.172;10.668;2022-11-20T06:24:52;-4.90;99.90
15286;DHT22;7744;52.172;10.668;2022-11-20T06:27:18;-4.90;99.90
15286;DHT22;7744;52.172;10.668;2022-11-20T06:29:43;-4.80;99.90
15286;DHT22;7744;52.172;10.668;2022-11-20T06:32:09;-4.80;99.90
15286;DHT22;7744;52.172;10.668;2022-11-20T06:34:35;-4.70;99.90
15286;DHT22;7744;52.172;10.668;2022-11-20T06:37:00;-4.50;99.90
15286;DHT22;7744;52.172;10.668;2022-11-20T06:39:26;-4.20;99.90
15286;DHT22;7744;52.172;10.668;2022-11-20T06:41:51;-4.20;99.90
15286;DHT22;7744;52.172;10.668;2022-11-20T06:44:17;-4.30;99.90
15286;DHT22;7744;52.172;10.668;2022-11-20T06:46:42;-4.30;99.90
15286;DHT22;7744;52.172;10.668;2022-11-20T06:49:08;-4.10;99.90
15286;DHT22;7744;52.172;10.668;2022-11-20T06:51:34;-4.10;99.90
15286;DHT22;7744;52.172;10.668;2022-11-20T06:53:59;-4.20;99.90
15286;DHT22;7744;52.172;10.668;2022-11-20T06:56:26;-4.10;99.90
15286;DHT22;7744;52.172;10.668;2022-11-20T06:58:52;-4.00;99.90
15286;DHT22;7744;52.172;10.668;2022-11-20T07:01:17;-3.80;99.90
15286;DHT22;7744;52.172;10.668;2022-11-20T07:03:43;-3.80;99.90
15286;DHT22;7744;52.172;10.668;2022-11-20T07:06:09;-3.80;99.90
15286;DHT22;7744;52.172;10.668;2022-11-20T07:08:35;-3.70;99.90
15286;DHT22;7744;52.172;10.668;2022-11-20T07:11:04;-3.70;99.90
15286;DHT22;7744;52.172;10.668;2022-11-20T07:13:30;-3.60;99.90
15286;DHT22;7744;52.172;10.668;2022-11-20T07:16:03;-3.60;99.90
15286;DHT22;7744;52.172;10.668;2022-11-20T07:18:29;-3.50;99.90
15286;DHT22;7744;52.172;10.668;2022-11-20T07:20:55;-3.40;99.90
15286;DHT22;7744;52.172;10.668;2022-11-20T07:23:20;-3.40;99.90
15286;DHT22;7744;52.172;10.668;2022-11-20T07:25:46;-3.30;99.90
15286;DHT22;7744;52.172;10.668;2022-11-20T07:28:11;-3.30;99.90
15286;DHT22;7744;52.172;10.668;2022-11-20T07:30:37;-3.20;99.90
15286;DHT22;7744;52.172;10.668;2022-11-20T07:33:03;-3.10;99.90
15286;DHT22;7744;52.172;10.668;2022-11-20T07:35:31;-3.10;99.90
15286;DHT22;7744;52.172;10.668;2022-11-20T07:37:57;-3.10;99.90
15286;DHT22;7744;52.172;10.668;2022-11-20T07:40:22;-3.10;99.90
15286;DHT22;7744;52.172;10.668;2022-11-20T07:42:49;-3.00;99.90
15286;DHT22;7744;52.172;10.668;2022-11-20T07:45:15;-3.00;99.90
15286;DHT22;7744;52.172;10.668;2022-11-20T07:47:41;-3.00;99.90
15286;DHT22;7744;52.172;10.668;2022-11-20T07:50:07;-3.00;97.40
15286;DHT22;7744;52.172;10.668;2022-11-20T07:52:32;-3.00;96.00
15286;DHT22;7744;52.172;10.668;2022-11-20T07:54:58;-3.10;88.30
15286;DHT22;7744;52.172;10.668;2022-11-20T07:57:24;-3.10;95.00
15286;DHT22;7744;52.172;10.668;2022-11-20T07:59:49;-3.00;96.90
15286;DHT22;7744;52.172;10.668;2022-11-20T08:02:15;-3.00;96.50
15286;DHT22;7744;52.172;10.668;2022-11-20T08:04:40;-2.90;91.30
15286;DHT22;7744;52.172;10.668;2022-11-20T08:07:06;-3.00;91.60
15286;DHT22;7744;52.172;10.668;2022-11-20T08:09:31;-3.00;91.40
15286;DHT22;7744;52.172;10.668;2022-11-20T08:11:58;-2.90;97.60
15286;DHT22;7744;52.172;10.668;2022-11-20T08:14:42;-2.90;96.70
15286;DHT22;7744;52.172;10.668;2022-11-20T08:17:08;-2.80;99.90
15286;DHT22;7744;52.172;10.668;2022-11-20T08:19:33;-2.70;99.90
15286;DHT22;7744;52.172;10.668;2022-11-20T08:21:59;-2.70;97.30
15286;DHT22;7744;52.172;10.668;2022-11-20T08:24:24;-2.70;83.80
15286;DHT22;7744;52.172;10.668;2022-11-20T08:26:51;-2.60;62.00
15286;DHT22;7744;52.172;10.668;2022-11-20T08:29:17;-2.50;72.60
15286;DHT22;7744;52.172;10.668;2022-11-20T08:31:43;-2.50;89.30
15286;DHT22;7744;52.172;10.668;2022-11-20T08:34:09;-2.40;99.90
15286;DHT22;7744;52.172;10.668;2022-11-20T08:36:36;-2.30;99.90
15286;DHT22;7744;52.172;10.668;2022-11-20T08:39:02;-2.30;99.90
15286;DHT22;7744;52.172;10.668;2022-11-20T08:41:29;-2.20;99.90
15286;DHT22;7744;52.172;10.668;2022-11-20T08:44:03;-2.10;99.90
15286;DHT22;7744;52.172;10.668;2022-11-20T08:46:37;-2.10;99.90
15286;DHT22;7744;52.172;10.668;2022-11-20T08:49:04;-2.00;93.90
15286;DHT22;7744;52.172;10.668;2022-11-20T08:51:30;-1.90;70.90
15286;DHT22;7744;52.172;10.668;2022-11-20T08:53:56;-1.90;67.10
15286;DHT22;7744;52.172;10.668;2022-11-20T08:56:22;-1.80;58.10
15286;DHT22;7744;52.172;10.668;2022-11-20T08:58:49;-1.70;77.70
15286;DHT22;7744;52.172;10.668;2022-11-20T09:01:15;-1.70;29.20
15286;DHT22;7744;52.172;10.668;2022-11-20T09:03:40;-1.50;2.30
15286;DHT22;7744;52.172;10.668;2022-11-20T09:06:07;-1.40;1.00
15286;DHT22;7744;52.172;10.668;2022-11-20T09:08:33;-0.80;1.00
15286;DHT22;7744;52.172;10.668;2022-11-20T09:10:59;-1.40;1.00
15286;DHT22;7744;52.172;10.668;2022-11-20T09:13:26;-1.30;1.00
15286;DHT22;7744;52.172;10.668;2022-11-20T09:15:54;-1.30;1.00
15286;DHT22;7744;52.172;10.668;2022-11-20T09:18:20;-1.20;5.90
15286;DHT22;7744;52.172;10.668;2022-11-20T09:20:46;-1.10;1.00
15286;DHT22;7744;52.172;10.668;2022-11-20T09:23:12;-1.10;1.00
15286;DHT22;7744;52.172;10.668;2022-11-20T09:25:37;-1.00;1.00
15286;DHT22;7744;52.172;10.668;2022-11-20T09:28:03;-1.00;1.00
15286;DHT22;7744;52.172;10.668;2022-11-20T09:30:28;-1.00;1.00
15286;DHT22;7744;52.172;10.668;2022-11-20T09:32:54;-1.00;1.00
15286;DHT22;7744;52.172;10.668;2022-11-20T09:35:20;-1.00;1.00
15286;DHT22;7744;52.172;10.668;2022-11-20T09:37:45;-1.00;1.00
15286;DHT22;7744;52.172;10.668;2022-11-20T09:40:21;-1.00;1.00
15286;DHT22;7744;52.172;10.668;2022-11-20T09:48:51;-0.70;1.00
15286;DHT22;7744;52.172;10.668;2022-11-20T09:51:44;-0.60;1.00
15286;DHT22;7744;52.172;10.668;2022-11-20T09:54:19;-0.60;1.00
15286;DHT22;7744;52.172;10.668;2022-11-20T09:56:53;-0.60;1.00
15286;DHT22;7744;52.172;10.668;2022-11-20T10:02:01;-0.70;1.00
15286;DHT22;7744;52.172;10.668;2022-11-20T10:04:29;-0.50;1.00
15286;DHT22;7744;52.172;10.668;2022-11-20T10:07:04;-0.40;1.00
15286;DHT22;7744;52.172;10.668;2022-11-20T10:09:35;-0.30;1.00
15286;DHT22;7744;52.172;10.668;2022-11-20T10:12:51;-0.20;1.00
15286;DHT22;7744;52.172;10.668;2022-11-20T10:15:52;-0.10;1.00
15286;DHT22;7744;52.172;10.668;2022-11-20T10:26:31;0.30;1.00
15286;DHT22;7744;52.172;10.668;2022-11-20T10:31:37;0.20;1.00
15286;DHT22;7744;52.172;10.668;2022-11-20T10:34:27;0.10;1.00
15286;DHT22;7744;52.172;10.668;2022-11-20T10:37:09;0.40;1.00
15286;DHT22;7744;52.172;10.668;2022-11-20T10:39:50;0.30;1.00
15286;DHT22;7744;52.172;10.668;2022-11-20T10:45:13;0.30;1.00
15286;DHT22;7744;52.172;10.668;2022-11-20T10:47:41;0.30;1.00
15286;DHT22;7744;52.172;10.668;2022-11-20T10:50:11;0.40;1.00
15286;DHT22;7744;52.172;10.668;2022-11-20T10:53:06;0.60;1.00
15286;DHT22;7744;52.172;10.668;2022-11-20T10:58:43;0.70;1.00
15286;DHT22;7744;52.172;10.668;2022-11-20T11:01:14;0.80;1.00
15286;DHT22;7744;52.172;10.668;2022-11-20T11:03:42;0.90;1.00
15286;DHT22;7744;52.172;10.668;2022-11-20T11:08:41;1.00;1.00
15286;DHT22;7744;52.172;10.668;2022-11-20T11:11:24;0.90;1.00
15286;DHT22;7744;52.172;10.668;2022-11-20T11:13:50;0.90;1.00
15286;DHT22;7744;52.172;10.668;2022-11-20T11:16:24;0.90;1.00
15286;DHT22;7744;52.172;10.668;2022-11-20T11:18:51;1.00;1.00
15286;DHT22;7744;52.172;10.668;2022-11-20T11:21:25;1.10;1.00
15286;DHT22;7744;52.172;10.668;2022-11-20T11:24:02;1.10;1.00
15286;DHT22;7744;52.172;10.668;2022-11-20T11:26:28;1.10;1.00
15286;DHT22;7744;52.172;10.668;2022-11-20T11:28:58;1.00;1.00
15286;DHT22;7744;52.172;10.668;2022-11-20T11:31:26;1.00;1.00
15286;DHT22;7744;52.172;10.668;2022-11-20T11:34:03;1.10;1.00
15286;DHT22;7744;52.172;10.668;2022-11-20T11:36:28;1.00;1.00
15286;DHT22;7744;52.172;10.668;2022-11-20T11:38:54;0.90;1.00
15286;DHT22;7744;52.172;10.668;2022-11-20T11:41:28;0.90;1.00
15286;DHT22;7744;52.172;10.668;2022-11-20T11:44:12;0.90;1.00
15286;DHT22;7744;52.172;10.668;2022-11-20T11:46:58;1.00;1.00
15286;DHT22;7744;52.172;10.668;2022-11-20T11:49:24;1.20;1.00
15286;DHT22;7744;52.172;10.668;2022-11-20T12:00:23;1.70;1.00
15286;DHT22;7744;52.172;10.668;2022-11-20T12:03:00;2.00;1.00
15286;DHT22;7744;52.172;10.668;2022-11-20T12:05:38;2.30;1.00
15286;DHT22;7744;52.172;10.668;2022-11-20T12:11:16;2.50;1.00
15286;DHT22;7744;52.172;10.668;2022-11-20T12:13:58;2.50;1.00
15286;DHT22;7744;52.172;10.668;2022-11-20T12:16:27;2.60;1.00
15286;DHT22;7744;52.172;10.668;2022-11-20T12:18:53;2.60;1.00
15286;DHT22;7744;52.172;10.668;2022-11-20T12:29:42;2.60;1.00
15286;DHT22;7744;52.172;10.668;2022-11-20T12:35:01;2.60;1.00
15286;DHT22;7744;52.172;10.668;2022-11-20T12:40:35;2.60;1.00
15286;DHT22;7744;52.172;10.668;2022-11-20T12:43:26;2.40;1.00
15286;DHT22;7744;52.172;10.668;2022-11-20T12:51:39;2.60;1.00
15286;DHT22;7744;52.172;10.668;2022-11-20T12:54:19;2.50;1.00
15286;DHT22;7744;52.172;10.668;2022-11-20T13:06:12;2.00;1.00
15286;DHT22;7744;52.172;10.668;2022-11-20T13:08:41;1.90;1.00
15286;DHT22;7744;52.172;10.668;2022-11-20T13:11:22;1.90;1.00
15286;DHT22;7744;52.172;10.668;2022-11-20T13:14:09;1.90;1.00
15286;DHT22;7744;52.172;10.668;2022-11-20T13:17:04;1.90;1.00
15286;DHT22;7744;52.172;10.668;2022-11-20T13:19:31;1.80;1.00
15286;DHT22;7744;52.172;10.668;2022-11-20T13:21:57;1.70;1.00
15286;DHT22;7744;52.172;10.668;2022-11-20T13:24:26;1.80;1.00
15286;DHT22;7744;52.172;10.668;2022-11-20T13:29:27;1.90;1.00
15286;DHT22;7744;52.172;10.668;2022-11-20T13:32:03;1.90;1.00
15286;DHT22;7744;52.172;10.668;2022-11-20T13:34:29;1.90;1.00
15286;DHT22;7744;52.172;10.668;2022-11-20T13:36:57;1.90;1.00
15286;DHT22;7744;52.172;10.668;2022-11-20T13:39:27;1.90;1.00
15286;DHT22;7744;52.172;10.668;2022-11-20T13:41:58;1.70;1.00
15286;DHT22;7744;52.172;10.668;2022-11-20T13:44:35;1.70;1.00
15286;DHT22;7744;52.172;10.668;2022-11-20T13:47:03;1.60;1.00
15286;DHT22;7744;52.172;10.668;2022-11-20T13:49:39;1.40;1.00
15286;DHT22;7744;52.172;10.668;2022-11-20T14:02:43;1.30;1.00
15286;DHT22;7744;52.172;10.668;2022-11-20T14:05:21;1.30;1.00
15286;DHT22;7744;52.172;10.668;2022-11-20T14:07:48;1.30;1.00
15286;DHT22;7744;52.172;10.668;2022-11-20T14:10:26;1.30;1.00
15286;DHT22;7744;52.172;10.668;2022-11-20T14:12:52;1.20;1.00
15286;DHT22;7744;52.172;10.668;2022-11-20T14:15:32;1.10;1.00
15286;DHT22;7744;52.172;10.668;2022-11-20T14:17:58;1.00;1.00
15286;DHT22;7744;52.172;10.668;2022-11-20T14:20:28;1.00;1.00
15286;DHT22;7744;52.172;10.668;2022-11-20T14:22:55;1.00;1.00
15286;DHT22;7744;52.172;10.668;2022-11-20T14:25:23;0.80;1.00
15286;DHT22;7744;52.172;10.668;2022-11-20T14:27:54;0.80;1.00
15286;DHT22;7744;52.172;10.668;2022-11-20T14:30:55;0.80;1.00
15286;DHT22;7744;52.172;10.668;2022-11-20T14:33:15;0.70;1.00
15286;DHT22;7744;52.172;10.668;2022-11-20T14:35:49;0.90;1.00
15286;DHT22;7744;52.172;10.668;2022-11-20T14:38:18;0.80;1.00
15286;DHT22;7744;52.172;10.668;2022-11-20T14:40:47;0.80;1.00
15286;DHT22;7744;52.172;10.668;2022-11-20T14:43:25;0.70;1.00
15286;DHT22;7744;52.172;10.668;2022-11-20T14:46:03;1.20;1.00
15286;DHT22;7744;52.172;10.668;2022-11-20T14:48:46;0.70;1.00
15286;DHT22;7744;52.172;10.668;2022-11-20T14:51:25;0.70;1.00
15286;DHT22;7744;52.172;10.668;2022-11-20T14:53:51;0.70;1.00
15286;DHT22;7744;52.172;10.668;2022-11-20T14:56:24;0.70;1.00
15286;DHT22;7744;52.172;10.668;2022-11-20T14:58:59;0.70;1.00
15286;DHT22;7744;52.172;10.668;2022-11-20T15:01:29;0.60;1.00
15286;DHT22;7744;52.172;10.668;2022-11-20T15:04:10;0.60;1.00
15286;DHT22;7744;52.172;10.668;2022-11-20T15:06:37;0.60;1.00
15286;DHT22;7744;52.172;10.668;2022-11-20T15:09:04;0.50;1.00
15286;DHT22;7744;52.172;10.668;2022-11-20T15:11:34;0.50;1.00
15286;DHT22;7744;52.172;10.668;2022-11-20T15:14:09;0.50;1.00
15286;DHT22;7744;52.172;10.668;2022-11-20T15:16:34;0.50;1.00
15286;DHT22;7744;52.172;10.668;2022-11-20T15:19:02;0.50;1.00
15286;DHT22;7744;52.172;10.668;2022-11-20T15:21:29;0.50;1.00
15286;DHT22;7744;52.172;10.668;2022-11-20T15:23:55;0.50;1.00
15286;DHT22;7744;52.172;10.668;2022-11-20T15:26:24;0.40;1.00
15286;DHT22;7744;52.172;10.668;2022-11-20T15:28:50;0.40;1.00
15286;DHT22;7744;52.172;10.668;2022-11-20T15:31:19;0.30;1.00
15286;DHT22;7744;52.172;10.668;2022-11-20T15:33:45;0.20;1.00
15286;DHT22;7744;52.172;10.668;2022-11-20T15:36:11;0.10;1.00
15286;DHT22;7744;52.172;10.668;2022-11-20T15:38:37;-0.10;1.00
15286;DHT22;7744;52.172;10.668;2022-11-20T15:41:03;-0.20;1.00
15286;DHT22;7744;52.172;10.668;2022-11-20T15:43:29;-0.20;1.00
15286;DHT22;7744;52.172;10.668;2022-11-20T15:45:59;-0.10;1.00
15286;DHT22;7744;52.172;10.668;2022-11-20T15:48:40;-0.10;1.00
15286;DHT22;7744;52.172;10.668;2022-11-20T15:51:21;-0.10;1.00
15286;DHT22;7744;52.172;10.668;2022-11-20T15:53:48;-0.10;1.00
15286;DHT22;7744;52.172;10.668;2022-11-20T15:56:14;0.00;1.00
15286;DHT22;7744;52.172;10.668;2022-11-20T15:58:40;0.10;1.00
15286;DHT22;7744;52.172;10.668;2022-11-20T16:01:11;0.00;1.00
15286;DHT22;7744;52.172;10.668;2022-11-20T16:03:37;0.00;1.00
15286;DHT22;7744;52.172;10.668;2022-11-20T16:06:02;0.00;1.00
15286;DHT22;7744;52.172;10.668;2022-11-20T16:08:28;0.00;1.00
15286;DHT22;7744;52.172;10.668;2022-11-20T16:10:54;0.00;1.00
15286;DHT22;7744;52.172;10.668;2022-11-20T16:13:19;0.00;1.00
15286;DHT22;7744;52.172;10.668;2022-11-20T16:16:06;-0.10;1.00
15286;DHT22;7744;52.172;10.668;2022-11-20T16:18:33;-0.10;1.00
15286;DHT22;7744;52.172;10.668;2022-11-20T16:20:59;-0.10;1.00
15286;DHT22;7744;52.172;10.668;2022-11-20T16:23:24;-0.20;1.00
15286;DHT22;7744;52.172;10.668;2022-11-20T16:25:50;-0.20;1.00
15286;DHT22;7744;52.172;10.668;2022-11-20T16:28:17;-0.30;1.00
15286;DHT22;7744;52.172;10.668;2022-11-20T16:30:43;-0.30;1.00
15286;DHT22;7744;52.172;10.668;2022-11-20T16:33:14;-0.30;1.00
15286;DHT22;7744;52.172;10.668;2022-11-20T16:35:40;-0.40;1.00
15286;DHT22;7744;52.172;10.668;2022-11-20T16:38:06;-0.40;1.00
15286;DHT22;7744;52.172;10.668;2022-11-20T16:40:32;-0.50;1.00
15286;DHT22;7744;52.172;10.668;2022-11-20T16:43:07;-0.50;1.00
15286;DHT22;7744;52.172;10.668;2022-11-20T16:45:34;-0.60;1.00
15286;DHT22;7744;52.172;10.668;2022-11-20T16:47:59;-0.70;1.00
15286;DHT22;7744;52.172;10.668;2022-11-20T16:50:25;-0.90;1.00
15286;DHT22;7744;52.172;10.668;2022-11-20T16:52:50;-0.90;1.00
15286;DHT22;7744;52.172;10.668;2022-11-20T16:55:23;-1.00;1.00
15286;DHT22;7744;52.172;10.668;2022-11-20T16:57:49;-1.00;1.00
15286;DHT22;7744;52.172;10.668;2022-11-20T17:00:15;-1.10;1.00
15286;DHT22;7744;52.172;10.668;2022-11-20T17:02:40;-1.20;1.00
15286;DHT22;7744;52.172;10.668;2022-11-20T17:05:06;-1.30;1.00
15286;DHT22;7744;52.172;10.668;2022-11-20T17:07:32;-1.40;1.00
15286;DHT22;7744;52.172;10.668;2022-11-20T17:09:57;-1.50;1.00
15286;DHT22;7744;52.172;10.668;2022-11-20T17:12:23;-1.50;1.00
15286;DHT22;7744;52.172;10.668;2022-11-20T17:14:48;-1.50;1.00